Artemisa, Cuba

1:16 PM CDT on September 02, 2014 (GMT -0400)
Jose Marti International | Change Station
CLOSE
Current Station
Airport
Location: Havana,
Elevation: 246 ft
Nearby Weather Stations

Elev 246 ft 22.99 °N, 82.41 °W | Updated 21 minutes ago

Scattered Clouds
Scattered Clouds
88 °F
Feels Like 93 °F
N
7
Wind Variable Wind from East

Today
High -- | Low -- °F
--% Chance of Precip.
Yesterday
High -- | Low -- °F
Precip. -- in
7:13 AM 7:47 PM
First Quarter, 53% visible
Pressure 30.04 in
Visibility 6.2 miles
Clouds Scattered Clouds 2500 ft
Heat Index 93 °F
Dew Point 70 °F
Humidity 55%
Rainfall 0.00 in
Snow Depth Not available.
UV 13 out of 12
Pollen Not available.
Air Quality Not available.
Flu Activity Not available.
METAR MUHA 021655Z 09006KT 040V120 9999 SCT025TCU 31/21 Q1017

More Conditions Fewer Conditions

Pressure 30.04 in
Visibility 6.2 miles
Clouds Scattered Clouds 2500 ft
Heat Index 93 °F
Dew Point 70 °F
Humidity 55%
Rainfall 0.00 in
Snow Depth Not available.
UV 13 out of 12
Pollen Not available.
Air Quality Not available.
Flu Activity Not available.
METAR MUHA 021655Z 09006KT 040V120 9999 SCT025TCU 31/21 Q1017

More Conditions Fewer Conditions

10-Day Weather Forecast

Almanac

Astronomy

Sep. 02, 2014 Rise Set
Actual Time 7:13 AM CDT 7:47 PM CDT
Civil Twilight 6:51 AM CDT 8:09 PM CDT
Nautical Twilight 6:24 AM CDT 8:36 PM CDT
Astronomical Twilight 5:57 AM CDT 9:03 PM CDT
Moon 2:08 PM CDT 12:35 AM CDT
Length of Visible Light 13h 18m
Length of Day
12h 33m
Tomorrow will be 1m 17s shorter.
First Quarter, 53% of the Moon is Illuminated
Today
First Quarter
Sep 8
Full
Sep 15
Last Quarter
Sep 24
New
Oct 1
First Quarter

Today's Extremes

Country Highs Country Lows

Community

WunderPhotos

Upload Photos

1,749,719 photos uploaded!

WunderBlogs® & News

By Dr. Jeff Masters
Director of Meteorology, Weather Underground
By Kari Strenfel
Meteorologist, Weather Underground
By Christopher C. Burt
Weather Historian, Weather Underground
September 2, 2014
September 2, 2014
September 2, 2014

Nearby

Snow Depth

Not available.

Earthquake Activity

City Distance Mag. Time & Date
No recent earthquake activity has been reported nearby.
Minimum magnitude displayed is 2.5.

Coastal Water Temperatures

Place Temperature
No Stations Reporting

Nearby Weather Stations